createdAt,value
2022-08-26T00:01:56.987Z,16.80
2022-08-26T00:04:25.999Z,16.70
2022-08-26T00:06:54.694Z,16.63
2022-08-26T00:09:24.818Z,16.03
2022-08-26T00:11:52.736Z,15.87
2022-08-26T00:14:20.433Z,15.93
2022-08-26T00:16:48.744Z,17.87
2022-08-26T00:19:18.349Z,17.07
2022-08-26T00:21:49.681Z,18.53
2022-08-26T00:24:18.884Z,16.27
2022-08-26T00:26:46.150Z,17.70
2022-08-26T00:29:13.234Z,15.63
2022-08-26T00:31:40.490Z,17.10
2022-08-26T00:34:09.370Z,16.97
2022-08-26T00:36:43.509Z,16.87
2022-08-26T00:39:21.991Z,18.30
2022-08-26T00:42:00.023Z,18.80
2022-08-26T00:44:27.135Z,18.80
2022-08-26T00:47:00.883Z,18.03
2022-08-26T00:49:47.998Z,18.13
2022-08-26T00:52:26.279Z,16.93
2022-08-26T00:55:03.654Z,16.10
2022-08-26T00:57:32.736Z,17.07
2022-08-26T01:00:03.141Z,16.33
2022-08-26T01:02:32.641Z,18.00
2022-08-26T01:05:04.222Z,17.60
2022-08-26T01:07:34.828Z,18.13
2022-08-26T01:10:06.827Z,18.43
2022-08-26T01:12:40.305Z,17.70
2022-08-26T01:15:11.523Z,17.43
2022-08-26T01:17:41.144Z,18.13
2022-08-26T01:20:35.404Z,18.73
2022-08-26T01:23:11.811Z,18.60
2022-08-26T01:25:47.736Z,19.33
2022-08-26T01:31:41.791Z,18.57
2022-08-26T01:34:16.841Z,19.07
2022-08-26T01:36:47.921Z,17.50
2022-08-26T01:39:18.328Z,19.53
2022-08-26T01:41:46.681Z,19.47
2022-08-26T01:44:24.281Z,18.73
2022-08-26T01:46:53.472Z,19.13
2022-08-26T01:49:22.209Z,19.30
2022-08-26T01:51:52.657Z,17.63
2022-08-26T01:54:20.596Z,17.83
2022-08-26T01:56:51.656Z,17.13
2022-08-26T01:59:21.335Z,18.00
2022-08-26T02:01:50.775Z,16.70
2022-08-26T02:04:29.019Z,16.70
2022-08-26T02:06:59.304Z,18.73
2022-08-26T02:09:26.427Z,18.73
2022-08-26T02:11:54.430Z,19.83
2022-08-26T02:14:35.093Z,21.40
2022-08-26T02:17:11.374Z,22.67
2022-08-26T02:19:41.937Z,20.93
2022-08-26T02:22:14.157Z,21.03
2022-08-26T02:24:57.964Z,22.07
2022-08-26T02:27:32.828Z,19.97
2022-08-26T02:30:12.850Z,21.27
2022-08-26T02:32:42.774Z,18.87
2022-08-26T02:35:11.547Z,19.20
2022-08-26T02:37:41.850Z,19.17
2022-08-26T02:40:12.556Z,19.93
2022-08-26T02:42:39.384Z,18.60
2022-08-26T02:45:07.585Z,17.73
2022-08-26T02:47:35.738Z,20.33
2022-08-26T02:50:03.045Z,18.57
2022-08-26T02:52:30.413Z,20.00
2022-08-26T02:54:59.153Z,19.70
2022-08-26T02:57:26.565Z,19.47
2022-08-26T02:59:57.421Z,19.57
2022-08-26T03:02:29.288Z,19.67
2022-08-26T03:05:01.950Z,20.17
2022-08-26T03:10:14.588Z,20.87
2022-08-26T03:12:41.919Z,20.17
2022-08-26T03:15:15.936Z,20.47
2022-08-26T03:17:50.375Z,20.33
2022-08-26T03:20:18.135Z,18.50
2022-08-26T03:22:45.938Z,16.83
2022-08-26T03:25:15.208Z,17.60
2022-08-26T03:27:43.191Z,18.33
2022-08-26T03:30:30.089Z,19.40
2022-08-26T03:32:57.182Z,18.97
2022-08-26T03:35:24.039Z,18.77
2022-08-26T03:37:53.114Z,19.47
2022-08-26T03:40:21.459Z,18.33
2022-08-26T03:42:49.996Z,19.73
2022-08-26T03:45:18.016Z,18.27
2022-08-26T03:47:47.775Z,19.77
2022-08-26T03:50:22.839Z,19.73
2022-08-26T03:52:54.788Z,18.97
2022-08-26T03:55:25.950Z,19.57
2022-08-26T03:57:54.547Z,21.10
2022-08-26T04:00:22.456Z,19.67
2022-08-26T04:02:51.305Z,19.17
2022-08-26T04:05:23.017Z,19.80
2022-08-26T04:07:50.711Z,19.73
2022-08-26T04:10:29.164Z,19.20
2022-08-26T04:12:58.721Z,19.20
2022-08-26T04:15:27.042Z,19.43
2022-08-26T04:17:54.477Z,20.53
2022-08-26T04:20:23.197Z,18.63
2022-08-26T04:22:50.773Z,19.03
2022-08-26T04:25:18.734Z,19.50
2022-08-26T04:27:48.323Z,17.57
2022-08-26T04:30:15.943Z,20.23
2022-08-26T04:32:43.648Z,20.30
2022-08-26T04:35:12.300Z,20.10
2022-08-26T04:37:39.097Z,18.90
2022-08-26T04:40:10.144Z,18.80
2022-08-26T04:42:37.369Z,18.93
2022-08-26T04:45:10.253Z,19.37
2022-08-26T04:47:38.621Z,19.30
2022-08-26T04:50:07.397Z,18.47
2022-08-26T04:52:36.887Z,18.70
2022-08-26T04:55:06.572Z,18.63
2022-08-26T04:57:35.384Z,19.23
2022-08-26T05:00:05.728Z,18.60
2022-08-26T05:02:32.601Z,18.97
2022-08-26T05:04:59.889Z,18.20
2022-08-26T05:07:26.939Z,17.70
2022-08-26T05:09:53.953Z,17.70
2022-08-26T05:12:25.015Z,16.10
2022-08-26T05:14:53.661Z,15.80
2022-08-26T05:17:20.608Z,15.10
2022-08-26T05:19:48.006Z,16.30
2022-08-26T05:22:17.502Z,14.93
2022-08-26T05:24:46.388Z,15.23
2022-08-26T05:27:14.141Z,14.90
2022-08-26T05:29:40.956Z,14.57
2022-08-26T05:32:08.799Z,15.03
2022-08-26T05:34:38.185Z,13.90
2022-08-26T05:37:06.540Z,13.87
2022-08-26T05:39:34.242Z,14.97
2022-08-26T05:42:01.235Z,14.13
2022-08-26T05:44:29.121Z,14.13
2022-08-26T05:47:04.369Z,13.07
2022-08-26T05:49:31.833Z,13.20
2022-08-26T05:51:59.554Z,13.87
2022-08-26T05:54:26.396Z,13.93
2022-08-26T05:56:53.218Z,13.93
2022-08-26T05:59:24.607Z,12.47
2022-08-26T06:01:53.233Z,11.47
2022-08-26T06:04:21.412Z,12.10
2022-08-26T06:06:48.571Z,10.83
2022-08-26T06:09:18.259Z,11.17
2022-08-26T06:11:45.358Z,10.83
2022-08-26T06:14:12.427Z,11.10
2022-08-26T06:16:41.508Z,10.13
2022-08-26T06:19:11.561Z,10.43
2022-08-26T06:21:41.260Z,10.00
2022-08-26T06:24:30.064Z,10.30
2022-08-26T06:27:01.881Z,9.90
2022-08-26T06:29:30.983Z,9.40
2022-08-26T06:31:58.328Z,10.70
2022-08-26T06:34:26.664Z,10.00
2022-08-26T06:36:58.790Z,8.93
2022-08-26T06:39:25.597Z,9.50
2022-08-26T06:41:52.912Z,9.50
2022-08-26T06:44:20.171Z,9.00
2022-08-26T06:46:50.240Z,9.43
2022-08-26T06:49:17.674Z,11.57
2022-08-26T06:51:44.760Z,9.27
2022-08-26T06:54:11.663Z,10.30
2022-08-26T06:56:43.826Z,9.97
2022-08-26T06:59:12.176Z,9.67
2022-08-26T07:01:45.236Z,9.30
2022-08-26T07:04:20.139Z,9.60
2022-08-26T07:06:50.297Z,9.57
2022-08-26T07:09:20.799Z,9.67
2022-08-26T07:11:48.147Z,9.10
2022-08-26T07:14:16.778Z,9.18
2022-08-26T07:16:47.521Z,8.45
2022-08-26T07:19:14.568Z,9.48
2022-08-26T07:21:44.087Z,9.45
2022-08-26T07:24:11.869Z,9.70
2022-08-26T07:26:42.862Z,9.63
2022-08-26T07:29:12.339Z,9.52
2022-08-26T07:31:42.741Z,9.73
2022-08-26T07:34:10.969Z,9.48
2022-08-26T07:36:37.855Z,9.32
2022-08-26T07:39:06.531Z,9.48
2022-08-26T07:41:33.457Z,9.48
2022-08-26T07:44:00.924Z,10.10
2022-08-26T07:46:30.229Z,10.43
2022-08-26T07:48:58.525Z,10.07
2022-08-26T07:51:27.033Z,10.85
2022-08-26T07:53:55.396Z,10.57
2022-08-26T07:56:23.290Z,9.90
2022-08-26T07:58:53.771Z,10.02
2022-08-26T08:01:23.573Z,10.20
2022-08-26T08:03:51.960Z,10.05
2022-08-26T08:06:27.243Z,9.43
2022-08-26T08:08:56.218Z,9.70
2022-08-26T08:11:24.132Z,8.93
2022-08-26T08:13:56.559Z,9.27
2022-08-26T08:16:28.194Z,9.15
2022-08-26T08:18:59.507Z,9.15
2022-08-26T08:21:28.076Z,9.25
2022-08-26T08:23:57.487Z,9.25
2022-08-26T08:26:26.027Z,9.15
2022-08-26T08:28:57.430Z,9.55
2022-08-26T08:34:16.772Z,9.13
2022-08-26T08:36:46.464Z,9.38
2022-08-26T08:39:14.341Z,9.25
2022-08-26T08:41:59.128Z,9.43
2022-08-26T08:47:03.939Z,8.88
2022-08-26T08:49:32.819Z,9.63
2022-08-26T08:52:06.706Z,9.43
2022-08-26T08:54:33.872Z,8.75
2022-08-26T08:57:49.186Z,9.02
2022-08-26T09:00:30.296Z,9.20
2022-08-26T09:03:26.772Z,9.38
2022-08-26T09:05:54.647Z,9.93
2022-08-26T09:08:29.108Z,9.00
2022-08-26T09:10:59.489Z,9.68
2022-08-26T09:13:27.558Z,9.00
2022-08-26T09:16:10.325Z,9.52
2022-08-26T09:18:46.325Z,9.50
2022-08-26T09:21:17.829Z,9.50
2022-08-26T09:23:49.269Z,9.23
2022-08-26T09:26:29.336Z,10.40
2022-08-26T09:29:01.251Z,11.30
2022-08-26T09:31:29.934Z,10.30
2022-08-26T09:34:27.625Z,10.55
2022-08-26T09:36:59.460Z,9.82
2022-08-26T09:39:37.632Z,9.98
2022-08-26T09:42:11.397Z,10.32
2022-08-26T09:44:59.494Z,10.13
2022-08-26T09:47:52.435Z,9.77
2022-08-26T09:50:36.660Z,8.77
2022-08-26T09:53:13.112Z,9.07
2022-08-26T09:55:43.112Z,9.07
2022-08-26T09:58:16.432Z,9.35
2022-08-26T10:00:55.837Z,8.88
2022-08-26T10:03:31.449Z,9.13
2022-08-26T10:06:17.412Z,9.48
2022-08-26T10:08:48.953Z,9.15
2022-08-26T10:11:39.022Z,9.80
2022-08-26T10:14:26.188Z,10.05
2022-08-26T10:17:08.452Z,9.85
2022-08-26T10:19:56.526Z,9.20
2022-08-26T10:22:41.188Z,9.30
2022-08-26T10:25:13.931Z,9.35
2022-08-26T10:28:08.170Z,9.38
2022-08-26T10:30:45.319Z,9.98
2022-08-26T10:33:15.404Z,9.57
2022-08-26T10:36:30.075Z,9.45
2022-08-26T10:38:59.668Z,9.38
2022-08-26T10:41:30.969Z,8.63
2022-08-26T10:44:00.481Z,8.00
2022-08-26T10:46:40.965Z,7.78
2022-08-26T10:49:17.979Z,8.30
2022-08-26T10:52:12.336Z,8.00
2022-08-26T10:54:49.012Z,8.50
2022-08-26T10:57:23.600Z,8.70
2022-08-26T11:00:22.942Z,8.63
2022-08-26T11:03:21.940Z,8.60
2022-08-26T11:06:20.046Z,8.40
2022-08-26T11:08:58.651Z,9.32
2022-08-26T11:11:47.956Z,9.60
2022-08-26T11:14:28.491Z,9.50
2022-08-26T11:16:57.615Z,9.00
2022-08-26T11:20:01.431Z,8.60
2022-08-26T11:22:37.919Z,8.45
2022-08-26T11:25:26.435Z,8.30
2022-08-26T11:27:59.554Z,8.68
2022-08-26T11:30:36.816Z,8.63
2022-08-26T11:33:03.888Z,8.52
2022-08-26T11:35:34.652Z,8.88
2022-08-26T11:38:25.306Z,8.10
2022-08-26T11:41:09.323Z,8.23
2022-08-26T11:43:37.719Z,7.40
2022-08-26T11:46:12.711Z,7.07
2022-08-26T11:48:43.069Z,7.00
2022-08-26T11:51:24.498Z,7.38
2022-08-26T11:53:51.842Z,6.40
2022-08-26T11:56:31.747Z,7.22
2022-08-26T11:59:01.404Z,7.03
2022-08-26T12:01:37.982Z,6.78
2022-08-26T12:04:08.288Z,6.65
2022-08-26T12:06:45.354Z,6.80
2022-08-26T12:09:21.365Z,7.00
2022-08-26T12:11:48.197Z,7.18
2022-08-26T12:14:25.583Z,7.20
2022-08-26T12:16:54.848Z,7.28
2022-08-26T12:19:32.880Z,6.93
2022-08-26T12:22:29.623Z,7.20
2022-08-26T12:25:01.834Z,7.03
2022-08-26T12:27:34.353Z,6.60
2022-08-26T12:30:06.839Z,6.80
2022-08-26T12:32:39.028Z,7.25
2022-08-26T12:35:24.647Z,7.70
2022-08-26T12:37:53.950Z,7.43
2022-08-26T12:40:41.659Z,7.15
2022-08-26T12:43:09.947Z,7.93
2022-08-26T12:45:44.108Z,7.55
2022-08-26T12:48:25.756Z,8.05
2022-08-26T12:50:53.222Z,7.50
2022-08-26T12:53:25.633Z,7.38
2022-08-26T12:55:59.090Z,7.50
2022-08-26T12:58:44.539Z,7.80
2022-08-26T13:01:11.331Z,7.43
2022-08-26T13:03:44.434Z,6.95
2022-08-26T13:06:31.734Z,6.82
2022-08-26T13:09:07.430Z,7.43
2022-08-26T13:11:44.917Z,8.50
2022-08-26T13:14:21.271Z,20.23
2022-08-26T13:16:51.792Z,7.68
2022-08-26T13:19:25.375Z,24.17
2022-08-26T13:21:54.480Z,11.23
2022-08-26T13:24:26.510Z,7.13
2022-08-26T13:26:53.727Z,7.45
2022-08-26T13:29:20.687Z,6.88
2022-08-26T13:31:47.838Z,7.07
2022-08-26T13:34:20.591Z,6.82
2022-08-26T13:36:48.877Z,7.07
2022-08-26T13:39:16.207Z,6.90
2022-08-26T13:41:43.343Z,7.15
2022-08-26T13:44:10.878Z,7.10
2022-08-26T13:46:38.153Z,6.90
2022-08-26T13:49:05.440Z,6.63
2022-08-26T13:51:32.789Z,7.10
2022-08-26T13:54:09.183Z,7.35
2022-08-26T13:56:37.663Z,7.00
2022-08-26T13:59:05.600Z,7.20
2022-08-26T14:01:33.817Z,7.55
2022-08-26T14:04:00.546Z,7.43
2022-08-26T14:06:27.285Z,7.60
2022-08-26T14:08:54.883Z,10.18
2022-08-26T14:11:22.474Z,7.22
2022-08-26T14:13:49.219Z,6.82
2022-08-26T14:16:25.452Z,6.72
2022-08-26T14:18:52.828Z,6.78
2022-08-26T14:21:20.501Z,6.80
2022-08-26T14:23:47.467Z,6.05
2022-08-26T14:26:27.785Z,6.65
2022-08-26T14:28:59.655Z,6.13
2022-08-26T14:31:29.251Z,6.00
2022-08-26T14:33:58.776Z,6.63
2022-08-26T14:36:28.378Z,6.88
2022-08-26T14:39:04.888Z,7.70
2022-08-26T14:41:33.097Z,7.68
2022-08-26T14:44:03.895Z,7.43
2022-08-26T14:46:34.069Z,6.72
2022-08-26T14:49:05.248Z,6.05
2022-08-26T14:51:34.221Z,7.10
2022-08-26T14:54:13.121Z,11.68
2022-08-26T14:56:42.554Z,8.10
2022-08-26T14:59:10.247Z,6.70
2022-08-26T15:01:37.539Z,6.75
2022-08-26T15:04:04.648Z,6.93
2022-08-26T15:06:32.038Z,6.55
2022-08-26T15:08:59.853Z,6.45
2022-08-26T15:11:27.037Z,6.63
2022-08-26T15:13:54.189Z,6.70
2022-08-26T15:16:21.782Z,7.60
2022-08-26T15:18:49.290Z,7.53
2022-08-26T15:21:16.008Z,7.80
2022-08-26T15:23:43.239Z,5.78
2022-08-26T15:26:15.954Z,5.75
2022-08-26T15:28:43.243Z,5.85
2022-08-26T15:31:10.651Z,5.90
2022-08-26T15:33:38.362Z,7.38
2022-08-26T15:36:06.695Z,5.82
2022-08-26T15:38:37.362Z,7.15
2022-08-26T15:41:06.684Z,7.35
2022-08-26T15:43:33.565Z,7.43
2022-08-26T15:46:00.437Z,7.07
2022-08-26T15:48:27.315Z,7.45
2022-08-26T15:50:58.780Z,8.63
2022-08-26T15:53:26.292Z,9.02
2022-08-26T15:55:55.109Z,8.35
2022-08-26T15:58:27.031Z,8.13
2022-08-26T16:00:54.987Z,7.88
2022-08-26T16:03:22.734Z,7.70
2022-08-26T16:05:49.574Z,8.43
2022-08-26T16:08:16.718Z,7.90
2022-08-26T16:10:50.065Z,7.80
2022-08-26T16:13:19.558Z,8.25
2022-08-26T16:15:47.690Z,7.95
2022-08-26T16:18:15.578Z,8.70
2022-08-26T16:21:12.470Z,10.27
2022-08-26T16:23:38.354Z,9.52
2022-08-26T16:26:17.085Z,7.93
2022-08-26T16:28:44.441Z,10.20
2022-08-26T16:31:12.008Z,8.55
2022-08-26T16:33:39.185Z,8.85
2022-08-26T16:36:06.929Z,10.73
2022-08-26T16:38:34.066Z,8.80
2022-08-26T16:41:01.567Z,8.52
2022-08-26T16:43:28.791Z,7.72
2022-08-26T16:45:55.909Z,8.20
2022-08-26T16:48:23.632Z,12.40
2022-08-26T16:50:51.918Z,8.60
2022-08-26T16:53:19.000Z,8.88
2022-08-26T16:55:50.403Z,8.13
2022-08-26T16:58:18.143Z,8.50
2022-08-26T17:00:45.306Z,8.88
2022-08-26T17:03:12.478Z,11.65
2022-08-26T17:05:40.112Z,9.10
2022-08-26T17:08:07.366Z,19.63
2022-08-26T17:10:34.576Z,8.35
2022-08-26T17:13:01.523Z,8.50
2022-08-26T17:15:28.752Z,13.70
2022-08-26T17:17:56.733Z,9.70
2022-08-26T17:20:25.176Z,17.05
2022-08-26T17:22:54.409Z,12.00
2022-08-26T17:25:31.905Z,8.82
2022-08-26T17:27:59.621Z,22.15
2022-08-26T17:30:26.904Z,9.55
2022-08-26T17:32:54.422Z,14.85
2022-08-26T17:35:22.065Z,8.73
2022-08-26T17:37:49.082Z,9.40
2022-08-26T17:40:22.753Z,16.60
2022-08-26T17:42:50.078Z,9.00
2022-08-26T17:45:18.148Z,8.65
2022-08-26T17:47:45.260Z,8.30
2022-08-26T17:50:16.231Z,8.80
2022-08-26T17:52:43.961Z,9.38
2022-08-26T17:55:13.848Z,9.48
2022-08-26T17:57:44.171Z,8.90
2022-08-26T18:00:23.323Z,9.13
2022-08-26T18:02:50.097Z,8.18
2022-08-26T18:05:18.260Z,9.00
2022-08-26T18:07:45.089Z,9.63
2022-08-26T18:10:15.504Z,11.65
2022-08-26T18:12:42.980Z,10.13
2022-08-26T18:15:12.576Z,12.20
2022-08-26T18:17:40.409Z,12.25
2022-08-26T18:20:10.518Z,10.50
2022-08-26T18:22:37.292Z,11.87
2022-08-26T18:25:05.518Z,12.13
2022-08-26T18:27:33.107Z,13.20
2022-08-26T18:29:59.964Z,12.48
2022-08-26T18:32:27.028Z,14.35
2022-08-26T18:34:53.817Z,17.88
2022-08-26T18:37:20.920Z,15.70
2022-08-26T18:39:48.579Z,15.87
2022-08-26T18:42:15.404Z,14.30
2022-08-26T18:44:42.143Z,14.60
2022-08-26T18:47:09.318Z,14.67
2022-08-26T18:49:36.497Z,16.40
2022-08-26T18:52:04.429Z,16.37
2022-08-26T18:54:31.321Z,14.30
2022-08-26T18:56:58.412Z,15.60
2022-08-26T18:59:30.554Z,12.87
2022-08-26T19:01:57.896Z,11.13
2022-08-26T19:04:24.800Z,11.37
2022-08-26T19:06:52.996Z,8.67
2022-08-26T19:09:20.906Z,8.40
2022-08-26T19:11:49.629Z,8.00
2022-08-26T19:14:17.717Z,7.20
2022-08-26T19:16:47.240Z,5.83
2022-08-26T19:19:15.075Z,4.80
2022-08-26T19:21:42.097Z,4.97
2022-08-26T19:24:17.208Z,5.80
2022-08-26T19:26:46.356Z,6.17
2022-08-26T19:29:14.106Z,5.30
2022-08-26T19:31:42.174Z,6.40
2022-08-26T19:34:11.804Z,6.30
2022-08-26T19:36:38.841Z,8.57
2022-08-26T19:39:09.905Z,7.20
2022-08-26T19:41:39.150Z,8.97
2022-08-26T19:44:10.986Z,19.87
2022-08-26T19:49:06.315Z,9.40
2022-08-26T19:51:35.549Z,9.53
2022-08-26T19:54:03.176Z,9.70
2022-08-26T19:56:30.440Z,7.50
2022-08-26T19:58:58.418Z,7.57
2022-08-26T20:01:26.560Z,7.67
2022-08-26T20:03:57.202Z,7.57
2022-08-26T20:06:25.086Z,8.63
2022-08-26T20:08:53.868Z,7.73
2022-08-26T20:11:22.000Z,8.10
2022-08-26T20:13:48.918Z,8.33
2022-08-26T20:16:16.988Z,7.53
2022-08-26T20:19:06.476Z,7.03
2022-08-26T20:21:35.884Z,8.20
2022-08-26T20:24:07.256Z,8.27
2022-08-26T20:26:36.632Z,8.53
2022-08-26T20:29:05.376Z,7.13
2022-08-26T20:31:32.686Z,8.63
2022-08-26T20:33:59.745Z,8.87
2022-08-26T20:36:27.936Z,9.37
2022-08-26T20:38:56.336Z,11.27
2022-08-26T20:41:25.734Z,8.63
2022-08-26T20:43:53.467Z,7.63
2022-08-26T20:46:24.549Z,7.13
2022-08-26T20:48:52.665Z,8.03
2022-08-26T20:51:20.698Z,7.43
2022-08-26T20:53:47.645Z,8.73
2022-08-26T20:56:16.075Z,8.13
2022-08-26T20:58:43.270Z,8.10
2022-08-26T21:01:18.601Z,8.40
2022-08-26T21:03:46.188Z,7.67
2022-08-26T21:06:13.119Z,6.70
2022-08-26T21:08:42.627Z,6.10
2022-08-26T21:11:11.033Z,6.80
2022-08-26T21:14:03.416Z,7.53
2022-08-26T21:16:26.596Z,7.27
2022-08-26T21:18:53.675Z,7.47
2022-08-26T21:21:25.050Z,7.50
2022-08-26T21:23:52.241Z,7.00
2022-08-26T21:26:19.084Z,6.30
2022-08-26T21:28:46.519Z,6.50
2022-08-26T21:31:17.226Z,6.90
2022-08-26T21:33:44.551Z,7.07
2022-08-26T21:36:13.334Z,6.87
2022-08-26T21:38:41.140Z,6.80
2022-08-26T21:41:20.661Z,7.90
2022-08-26T21:43:49.021Z,7.43
2022-08-26T21:46:19.240Z,7.63
2022-08-26T21:48:51.478Z,9.10
2022-08-26T21:51:21.099Z,10.37
2022-08-26T21:53:48.484Z,9.70
2022-08-26T21:56:17.780Z,9.67
2022-08-26T21:58:47.169Z,8.33
2022-08-26T22:01:21.547Z,8.73
2022-08-26T22:03:49.749Z,8.93
2022-08-26T22:06:19.925Z,8.40
2022-08-26T22:08:47.591Z,7.80
2022-08-26T22:11:15.849Z,8.37
2022-08-26T22:13:43.694Z,7.77
2022-08-26T22:16:11.446Z,7.47
2022-08-26T22:18:39.472Z,7.97
2022-08-26T22:21:10.035Z,7.87
2022-08-26T22:23:38.355Z,7.80
2022-08-26T22:26:07.841Z,6.97
2022-08-26T22:28:36.188Z,6.90
2022-08-26T22:31:03.301Z,7.40
2022-08-26T22:33:30.195Z,6.57
2022-08-26T22:36:06.684Z,7.13
2022-08-26T22:38:34.936Z,6.77
2022-08-26T22:41:05.385Z,6.97
2022-08-26T22:43:35.520Z,7.23
2022-08-26T22:46:02.427Z,7.83
2022-08-26T22:48:29.546Z,8.73
2022-08-26T22:51:00.206Z,8.00
2022-08-26T22:53:28.212Z,7.63
2022-08-26T22:55:56.385Z,8.43
2022-08-26T22:58:28.011Z,8.57
2022-08-26T23:00:59.335Z,9.20
2022-08-26T23:03:27.712Z,9.53
2022-08-26T23:05:56.196Z,9.83
2022-08-26T23:08:24.904Z,9.17
2022-08-26T23:10:53.539Z,9.00
2022-08-26T23:13:21.039Z,10.17
2022-08-26T23:15:48.101Z,10.33
2022-08-26T23:18:15.583Z,10.80
2022-08-26T23:20:42.780Z,10.90
2022-08-26T23:23:09.853Z,11.70
2022-08-26T23:25:39.155Z,11.63
2022-08-26T23:28:13.561Z,12.93
2022-08-26T23:30:40.459Z,11.90
2022-08-26T23:33:07.490Z,12.70
2022-08-26T23:35:34.603Z,13.43
2022-08-26T23:38:02.647Z,13.63
2022-08-26T23:40:32.850Z,15.23
2022-08-26T23:43:03.646Z,14.53
2022-08-26T23:45:31.727Z,14.87
2022-08-26T23:47:59.644Z,13.27
2022-08-26T23:50:48.524Z,15.60
2022-08-26T23:53:20.075Z,13.93
2022-08-26T23:55:52.268Z,12.90
2022-08-26T23:58:21.269Z,11.03
